Time;durP1;ratioP1;P1;durP2;ratioP2;P2;SDS_P1;SDS_P2;PMS_P1;PMS_P2;Temp;Humidity;BMP_temperature;BMP_pressure;BME280_temperature;BME280_humidity;BME280_pressure;Samples;Min_cycle;Max_cycle;Signal;HPM_P1;HPM_P2
2021/10/30 00:02:11;;;;;;;12.32;6.80;;;11.40;99.90;;;;;;5020056;28;20042;-60
2021/10/30 00:04:36;;;;;;;18.42;7.38;;;11.40;99.90;;;;;;5018412;28;20519;-57
2021/10/30 00:07:02;;;;;;;10.15;6.60;;;11.40;99.90;;;;;;5018671;28;20041;-59
2021/10/30 00:09:27;;;;;;;12.57;7.20;;;11.40;99.90;;;;;;5026860;28;20076;-59
2021/10/30 00:11:53;;;;;;;11.65;6.60;;;11.40;99.90;;;;;;5029789;28;20038;-58
2021/10/30 00:14:19;;;;;;;11.13;6.82;;;11.40;99.90;;;;;;5030110;28;20037;-60
2021/10/30 00:16:44;;;;;;;12.90;7.18;;;11.40;99.90;;;;;;5025508;28;20033;-59
2021/10/30 00:19:10;;;;;;;13.20;7.53;;;11.40;99.90;;;;;;5017929;28;20045;-59
2021/10/30 00:21:36;;;;;;;9.73;6.60;;;11.40;99.90;;;;;;5024097;28;20517;-60
2021/10/30 00:24:02;;;;;;;15.13;6.85;;;11.40;99.90;;;;;;5024847;28;20065;-60
2021/10/30 00:26:27;;;;;;;9.73;6.80;;;11.40;99.90;;;;;;5026487;28;20029;-58
2021/10/30 00:28:53;;;;;;;13.75;6.78;;;11.40;99.90;;;;;;5030000;28;20112;-59
2021/10/30 00:31:18;;;;;;;10.10;6.38;;;11.40;99.90;;;;;;5026906;28;20033;-59
2021/10/30 00:33:44;;;;;;;13.50;6.97;;;11.40;99.90;;;;;;5023548;28;20033;-59
2021/10/30 00:36:10;;;;;;;10.52;6.53;;;11.30;99.90;;;;;;5025657;28;20040;-59
2021/10/30 00:38:36;;;;;;;10.48;6.90;;;11.30;99.90;;;;;;5030205;28;20099;-60
2021/10/30 00:41:09;;;;;;;8.95;6.60;;;11.20;99.90;;;;;;5021024;28;20471;-59
2021/10/30 00:43:35;;;;;;;16.20;7.72;;;11.30;99.90;;;;;;5019530;28;20088;-58
2021/10/30 00:46:01;;;;;;;13.23;6.47;;;11.20;99.90;;;;;;5031314;28;20379;-60
2021/10/30 00:48:27;;;;;;;12.55;6.25;;;11.30;99.90;;;;;;5022774;28;20021;-57
2021/10/30 00:50:57;;;;;;;10.70;5.78;;;11.20;99.90;;;;;;5029265;28;20505;-58
2021/10/30 00:53:29;;;;;;;9.93;5.90;;;11.20;99.90;;;;;;5032386;28;20033;-57
2021/10/30 00:56:01;;;;;;;13.80;6.88;;;11.20;99.90;;;;;;5032376;28;20403;-60
2021/10/30 00:58:29;;;;;;;13.45;6.35;;;11.20;99.90;;;;;;5030044;28;20111;-60
2021/10/30 01:00:54;;;;;;;10.98;5.40;;;11.20;99.90;;;;;;5031274;28;20025;-58
2021/10/30 01:03:20;;;;;;;9.82;5.93;;;11.10;99.90;;;;;;5024298;28;20034;-59
2021/10/30 01:05:46;;;;;;;9.02;5.72;;;11.10;99.90;;;;;;5031073;28;20032;-58
2021/10/30 01:08:13;;;;;;;10.07;5.80;;;11.10;99.90;;;;;;5024048;28;20029;-58
2021/10/30 01:10:39;;;;;;;8.77;6.15;;;11.10;99.90;;;;;;5025651;28;20436;-58
2021/10/30 01:13:05;;;;;;;12.98;5.78;;;11.10;99.90;;;;;;5030316;28;20029;-58
2021/10/30 01:15:30;;;;;;;10.73;5.53;;;11.20;99.90;;;;;;5029482;28;20048;-60
2021/10/30 01:17:56;;;;;;;9.77;6.03;;;11.20;99.90;;;;;;5028912;28;20037;-59
2021/10/30 01:20:26;;;;;;;11.10;6.18;;;11.30;99.90;;;;;;5031600;28;20024;-59
2021/10/30 01:22:57;;;;;;;8.85;5.88;;;11.30;99.90;;;;;;5030233;28;20571;-58
2021/10/30 01:25:23;;;;;;;9.40;5.32;;;11.30;99.90;;;;;;5029342;28;20029;-58
2021/10/30 01:27:50;;;;;;;7.25;5.03;;;11.40;99.90;;;;;;5030251;28;20400;-59
2021/10/30 01:30:17;;;;;;;9.02;5.70;;;11.40;99.90;;;;;;5027575;28;20021;-59
2021/10/30 01:33:02;;;;;;;8.10;5.72;;;11.40;99.90;;;;;;5029973;28;20029;-60
2021/10/30 01:35:33;;;;;;;8.75;5.40;;;11.40;99.90;;;;;;5023368;28;20113;-57
2021/10/30 01:38:00;;;;;;;7.85;5.00;;;11.40;99.90;;;;;;5030403;28;20083;-59
2021/10/30 01:40:28;;;;;;;9.05;5.45;;;11.30;99.90;;;;;;5022143;28;20095;-57
2021/10/30 01:43:00;;;;;;;7.80;4.85;;;11.30;99.90;;;;;;5022529;28;20488;-57
2021/10/30 01:45:27;;;;;;;10.13;5.38;;;11.30;99.90;;;;;;5029987;28;20442;-59
2021/10/30 01:47:52;;;;;;;8.88;4.75;;;11.30;99.90;;;;;;5016634;28;20501;-60
2021/10/30 01:50:19;;;;;;;7.68;4.90;;;11.30;99.90;;;;;;5023104;28;20022;-60
2021/10/30 01:52:44;;;;;;;9.32;4.72;;;11.20;99.90;;;;;;5024327;28;20053;-59
2021/10/30 01:55:12;;;;;;;9.93;4.93;;;11.20;99.90;;;;;;5030990;28;20061;-60
2021/10/30 01:57:38;;;;;;;9.15;5.43;;;11.20;99.90;;;;;;5030221;28;20029;-59
2021/10/30 02:00:05;;;;;;;9.55;5.72;;;11.10;99.90;;;;;;5021424;28;20087;-56
2021/10/30 02:02:31;;;;;;;10.55;5.57;;;11.10;99.90;;;;;;5023036;28;20033;-54
2021/10/30 02:04:56;;;;;;;9.13;5.65;;;11.10;99.90;;;;;;5027904;28;20029;-58
2021/10/30 02:07:22;;;;;;;7.60;5.18;;;11.10;99.90;;;;;;5029282;28;20394;-59
2021/10/30 02:09:48;;;;;;;9.63;5.65;;;11.20;99.90;;;;;;5029893;28;20030;-58
2021/10/30 02:12:13;;;;;;;8.57;5.20;;;11.20;99.90;;;;;;5028028;28;20087;-60
2021/10/30 02:14:39;;;;;;;11.88;5.85;;;11.20;99.90;;;;;;5028600;28;20032;-60
2021/10/30 02:17:04;;;;;;;10.05;5.07;;;11.20;99.90;;;;;;5028710;28;20030;-56
2021/10/30 02:19:30;;;;;;;11.00;5.13;;;11.20;99.90;;;;;;5024385;28;20026;-60
2021/10/30 02:21:55;;;;;;;9.50;5.22;;;11.10;99.90;;;;;;5021865;28;20379;-58
2021/10/30 02:24:22;;;;;;;13.65;4.72;;;11.20;99.90;;;;;;5020610;28;20368;-59
2021/10/30 02:26:48;;;;;;;13.23;4.75;;;11.20;99.90;;;;;;5026939;28;20037;-58
2021/10/30 02:29:13;;;;;;;7.72;5.35;;;11.10;99.90;;;;;;5023540;28;20025;-60
2021/10/30 02:31:39;;;;;;;10.00;4.85;;;11.10;99.90;;;;;;5022562;28;20028;-59
2021/10/30 02:34:04;;;;;;;12.68;5.43;;;11.00;99.90;;;;;;5028485;28;20037;-57
2021/10/30 02:36:30;;;;;;;12.38;4.93;;;11.10;99.90;;;;;;5029635;28;20030;-57
2021/10/30 02:38:55;;;;;;;9.77;5.63;;;11.10;99.90;;;;;;5026215;28;20112;-60
2021/10/30 02:41:21;;;;;;;8.18;4.57;;;11.10;99.90;;;;;;5030195;28;20021;-59
2021/10/30 02:43:47;;;;;;;9.70;5.22;;;11.00;99.90;;;;;;5030631;28;20025;-57
2021/10/30 02:46:12;;;;;;;7.80;5.38;;;11.10;99.90;;;;;;5031060;28;20032;-58
2021/10/30 02:48:38;;;;;;;8.98;5.95;;;11.10;99.90;;;;;;5030649;28;20065;-54
2021/10/30 02:51:03;;;;;;;6.72;4.70;;;11.10;99.90;;;;;;5031049;28;20048;-58
2021/10/30 02:53:29;;;;;;;9.10;5.20;;;11.10;99.90;;;;;;5030978;28;20037;-57
2021/10/30 02:55:54;;;;;;;13.05;5.25;;;11.10;99.90;;;;;;5030772;28;20128;-59
2021/10/30 02:58:20;;;;;;;12.07;4.68;;;11.10;99.90;;;;;;5027179;28;20029;-59
2021/10/30 03:00:46;;;;;;;8.20;5.03;;;11.10;99.90;;;;;;5024859;28;20542;-57
2021/10/30 03:03:11;;;;;;;6.93;4.60;;;11.20;99.90;;;;;;5024630;28;20037;-57
2021/10/30 03:05:37;;;;;;;7.38;4.78;;;11.20;99.90;;;;;;5028886;28;20113;-59
2021/10/30 03:08:03;;;;;;;7.03;4.60;;;11.20;99.90;;;;;;5021772;28;20029;-59
2021/10/30 03:10:28;;;;;;;11.05;4.85;;;11.30;99.90;;;;;;5021153;28;20028;-57
2021/10/30 03:12:54;;;;;;;8.32;5.38;;;11.30;99.90;;;;;;5030379;28;20034;-58
2021/10/30 03:15:20;;;;;;;8.68;4.80;;;11.40;99.90;;;;;;5024065;28;20029;-52
2021/10/30 03:17:46;;;;;;;8.13;4.75;;;11.40;99.90;;;;;;5028562;28;20072;-60
2021/10/30 03:20:13;;;;;;;8.88;5.20;;;11.40;99.90;;;;;;5030931;28;20407;-58
2021/10/30 03:22:38;;;;;;;5.95;4.88;;;11.40;99.90;;;;;;5028542;28;20021;-57
2021/10/30 03:25:04;;;;;;;7.15;4.97;;;11.40;99.90;;;;;;5017923;28;20506;-59
2021/10/30 03:27:30;;;;;;;14.02;6.55;;;11.50;99.90;;;;;;5023744;28;20048;-57
2021/10/30 03:29:56;;;;;;;9.75;4.95;;;11.50;99.90;;;;;;5016864;28;20022;-60
2021/10/30 03:32:21;;;;;;;10.82;5.10;;;11.60;99.90;;;;;;5022686;28;20049;-56
2021/10/30 03:34:47;;;;;;;10.25;5.63;;;11.60;99.90;;;;;;5022221;28;20064;-57
2021/10/30 03:37:12;;;;;;;8.32;4.97;;;11.60;99.90;;;;;;5028410;28;20029;-60
2021/10/30 03:39:38;;;;;;;10.93;5.18;;;11.60;99.90;;;;;;5028242;28;20025;-60
2021/10/30 03:42:04;;;;;;;7.50;5.63;;;11.60;99.90;;;;;;5023640;28;20114;-60
2021/10/30 03:44:30;;;;;;;6.57;5.22;;;11.60;99.90;;;;;;5019127;28;20101;-57
2021/10/30 03:46:56;;;;;;;15.10;5.93;;;11.60;99.90;;;;;;5022990;28;20100;-58
2021/10/30 03:49:21;;;;;;;11.45;6.45;;;11.70;99.90;;;;;;5029213;28;20025;-56
2021/10/30 03:51:47;;;;;;;10.93;5.60;;;11.70;99.90;;;;;;5027732;28;20438;-59
2021/10/30 03:54:13;;;;;;;8.95;5.45;;;11.70;99.90;;;;;;5021904;28;20034;-59
2021/10/30 03:56:39;;;;;;;9.25;5.38;;;11.70;99.90;;;;;;5028039;28;20501;-59
2021/10/30 03:59:04;;;;;;;7.65;4.53;;;11.70;99.90;;;;;;5026548;28;20026;-58
2021/10/30 04:01:30;;;;;;;8.20;4.53;;;11.70;99.90;;;;;;5024422;28;20398;-60
2021/10/30 04:03:55;;;;;;;8.43;5.90;;;11.70;99.90;;;;;;5024493;28;20113;-57
2021/10/30 04:06:21;;;;;;;8.10;5.60;;;11.70;99.90;;;;;;5030277;28;20026;-59
2021/10/30 04:08:47;;;;;;;8.85;5.05;;;11.70;99.90;;;;;;5029738;28;20182;-57
2021/10/30 04:11:12;;;;;;;8.95;5.65;;;11.70;99.90;;;;;;5028093;28;20057;-59
2021/10/30 04:13:38;;;;;;;7.53;5.18;;;11.70;99.90;;;;;;5019070;28;20029;-56
2021/10/30 04:16:03;;;;;;;11.88;5.30;;;11.70;99.90;;;;;;5018019;28;20376;-60
2021/10/30 04:18:29;;;;;;;7.63;5.45;;;11.70;99.90;;;;;;5027455;28;20052;-60
2021/10/30 04:20:55;;;;;;;9.00;5.40;;;11.70;99.90;;;;;;5021807;28;20038;-59
2021/10/30 04:23:20;;;;;;;10.18;6.00;;;11.70;99.90;;;;;;5028724;28;20487;-56
2021/10/30 04:25:46;;;;;;;8.95;5.15;;;11.70;99.90;;;;;;5020293;28;20429;-59
2021/10/30 04:28:12;;;;;;;12.32;5.15;;;11.70;99.90;;;;;;5029243;28;20029;-59
2021/10/30 04:30:37;;;;;;;9.05;5.47;;;11.70;99.90;;;;;;5029536;28;20033;-58
2021/10/30 04:33:04;;;;;;;11.63;5.20;;;11.70;99.90;;;;;;5028902;28;20022;-59
2021/10/30 04:35:30;;;;;;;6.90;4.75;;;11.70;99.90;;;;;;5032397;28;20034;-59
2021/10/30 04:37:55;;;;;;;7.20;5.05;;;11.70;99.90;;;;;;5030489;28;20048;-58
2021/10/30 04:40:21;;;;;;;7.13;5.18;;;11.70;99.90;;;;;;5033064;28;20487;-58
2021/10/30 04:42:46;;;;;;;12.15;5.43;;;11.70;99.90;;;;;;5030783;28;20041;-58
2021/10/30 04:45:12;;;;;;;11.90;5.35;;;11.60;99.90;;;;;;5026974;28;20022;-59
2021/10/30 04:47:38;;;;;;;7.63;4.68;;;11.60;99.90;;;;;;5031522;28;20131;-58
2021/10/30 04:50:04;;;;;;;7.47;5.15;;;11.60;99.90;;;;;;5030579;28;20064;-58
2021/10/30 04:52:30;;;;;;;6.75;4.65;;;11.70;99.90;;;;;;5026097;28;20064;-57
2021/10/30 04:54:56;;;;;;;8.68;4.88;;;11.70;99.90;;;;;;5026859;28;20034;-58
2021/10/30 04:57:21;;;;;;;12.40;5.00;;;11.70;99.90;;;;;;5031740;28;20099;-58
2021/10/30 04:59:47;;;;;;;9.60;5.88;;;11.70;99.90;;;;;;5031168;28;20029;-59
2021/10/30 05:02:13;;;;;;;11.07;5.55;;;11.70;99.90;;;;;;5027003;28;20040;-56
2021/10/30 05:04:38;;;;;;;10.90;5.10;;;11.70;99.90;;;;;;5028868;28;20021;-56
2021/10/30 05:07:04;;;;;;;8.32;4.60;;;11.70;99.90;;;;;;5024773;28;20030;-55
2021/10/30 05:09:31;;;;;;;11.73;5.00;;;11.70;99.90;;;;;;5026948;28;20027;-54
2021/10/30 05:11:57;;;;;;;8.65;4.85;;;11.70;99.90;;;;;;5027382;28;20037;-59
2021/10/30 05:14:22;;;;;;;7.10;4.55;;;11.70;99.90;;;;;;5030794;28;20391;-59
2021/10/30 05:16:49;;;;;;;7.55;4.38;;;11.70;99.90;;;;;;5024608;28;20109;-59
2021/10/30 05:19:15;;;;;;;6.43;4.53;;;11.70;99.90;;;;;;5029358;28;20025;-58
2021/10/30 05:21:41;;;;;;;10.35;4.45;;;11.60;99.90;;;;;;5030102;28;20517;-60
2021/10/30 05:24:07;;;;;;;8.43;5.22;;;11.60;99.90;;;;;;5030295;28;20045;-60
2021/10/30 05:26:33;;;;;;;6.90;4.25;;;11.70;99.90;;;;;;5026547;28;20022;-60
2021/10/30 05:28:58;;;;;;;6.32;4.15;;;11.70;99.90;;;;;;5029056;28;20034;-60
2021/10/30 05:31:24;;;;;;;7.00;4.05;;;11.80;99.90;;;;;;5029468;28;20036;-58
2021/10/30 05:33:50;;;;;;;6.65;3.95;;;11.70;99.90;;;;;;5030429;28;20113;-57
2021/10/30 05:36:16;;;;;;;7.20;4.75;;;11.70;99.90;;;;;;5030048;28;20021;-59
2021/10/30 05:38:48;;;;;;;6.45;4.22;;;11.70;99.90;;;;;;5027002;28;20462;-59
2021/10/30 05:41:16;;;;;;;8.63;4.47;;;11.70;99.90;;;;;;5030837;28;20152;-58
2021/10/30 05:43:42;;;;;;;7.60;4.30;;;11.70;99.90;;;;;;5023268;28;20033;-60
2021/10/30 05:46:08;;;;;;;7.30;4.13;;;11.80;99.90;;;;;;5022793;28;20041;-60
2021/10/30 05:48:34;;;;;;;12.10;4.50;;;11.70;99.90;;;;;;5022960;28;20533;-58
2021/10/30 05:51:01;;;;;;;10.13;4.93;;;11.80;99.90;;;;;;5024482;28;20014;-59
2021/10/30 05:53:26;;;;;;;8.25;4.63;;;11.80;99.90;;;;;;5027380;28;20036;-58
2021/10/30 05:55:52;;;;;;;7.65;4.63;;;11.80;99.90;;;;;;5047999;23;20046;-60
2021/10/30 05:58:17;;;;;;;6.70;4.25;;;11.80;99.90;;;;;;5018046;28;20021;-59
2021/10/30 06:00:43;;;;;;;10.13;4.90;;;11.80;99.90;;;;;;5015823;28;20080;-60
2021/10/30 06:03:08;;;;;;;8.25;5.00;;;11.80;99.90;;;;;;5026720;28;20043;-60
2021/10/30 06:05:34;;;;;;;7.05;4.50;;;11.80;99.90;;;;;;5022052;28;20030;-59
2021/10/30 06:07:59;;;;;;;8.55;4.38;;;11.80;99.90;;;;;;5028436;28;20033;-60
2021/10/30 06:10:26;;;;;;;6.53;4.95;;;11.80;99.90;;;;;;5030840;28;20483;-61
2021/10/30 06:12:51;;;;;;;8.68;4.80;;;11.80;99.90;;;;;;5024390;28;20380;-61
2021/10/30 06:15:17;;;;;;;8.15;5.72;;;11.80;99.90;;;;;;5030678;28;20083;-61
2021/10/30 06:17:42;;;;;;;6.40;4.45;;;11.70;99.90;;;;;;5031517;28;20467;-61
2021/10/30 06:20:09;;;;;;;9.90;4.75;;;11.70;99.90;;;;;;5030868;28;20120;-61
2021/10/30 06:22:34;;;;;;;6.95;4.30;;;11.70;99.90;;;;;;5029661;28;20030;-60
2021/10/30 06:25:01;;;;;;;9.27;5.07;;;11.70;99.90;;;;;;5030401;28;20408;-60
2021/10/30 06:27:27;;;;;;;7.30;4.85;;;11.70;99.90;;;;;;5029116;28;20108;-60
2021/10/30 06:29:52;;;;;;;7.35;4.50;;;11.70;99.90;;;;;;5030422;28;20030;-61
2021/10/30 06:32:18;;;;;;;8.95;4.80;;;11.80;99.90;;;;;;5029658;28;20041;-61
2021/10/30 06:34:43;;;;;;;7.22;4.47;;;11.80;99.90;;;;;;5029262;28;20047;-59
2021/10/30 06:37:09;;;;;;;9.07;5.20;;;11.80;99.90;;;;;;5020836;28;20388;-60
2021/10/30 06:39:34;;;;;;;8.07;4.90;;;11.80;99.90;;;;;;5029093;28;20037;-59
2021/10/30 06:42:01;;;;;;;8.20;5.32;;;11.90;99.90;;;;;;5016545;28;20030;-60
2021/10/30 06:44:27;;;;;;;10.63;5.00;;;11.80;99.90;;;;;;5029565;28;20100;-60
2021/10/30 06:46:53;;;;;;;8.30;5.05;;;11.80;99.90;;;;;;5027887;28;20109;-61
2021/10/30 06:49:20;;;;;;;10.85;5.43;;;11.80;99.90;;;;;;5022722;28;20067;-61
2021/10/30 06:51:47;;;;;;;8.73;4.93;;;11.80;99.90;;;;;;5028539;28;20037;-60
2021/10/30 06:54:13;;;;;;;7.55;4.97;;;11.70;99.90;;;;;;5019201;28;20447;-60
2021/10/30 06:56:40;;;;;;;8.57;5.18;;;11.80;99.90;;;;;;5030582;28;20112;-60
2021/10/30 06:59:06;;;;;;;9.32;5.45;;;11.70;99.90;;;;;;5030758;28;20479;-62
2021/10/30 07:01:35;;;;;;;8.48;6.00;;;11.80;99.90;;;;;;4994966;28;20041;-61
2021/10/30 07:04:01;;;;;;;8.98;5.63;;;11.80;99.90;;;;;;5027650;28;20049;-61
2021/10/30 07:06:26;;;;;;;10.18;6.38;;;11.80;99.90;;;;;;5028891;28;20056;-61
2021/10/30 07:08:52;;;;;;;10.55;6.43;;;11.80;99.90;;;;;;5027768;28;20025;-60
2021/10/30 07:11:17;;;;;;;8.40;5.43;;;11.70;99.90;;;;;;5023328;28;20053;-59
2021/10/30 07:13:43;;;;;;;9.30;5.65;;;11.70;99.90;;;;;;5021276;28;20041;-60
2021/10/30 07:16:14;;;;;;;8.15;5.68;;;11.70;99.90;;;;;;5015012;28;20071;-60
2021/10/30 07:18:40;;;;;;;10.93;6.10;;;11.70;99.90;;;;;;5023065;28;20034;-60
2021/10/30 07:21:05;;;;;;;8.50;5.57;;;11.70;99.90;;;;;;5024873;28;20083;-61
2021/10/30 07:23:31;;;;;;;10.80;5.65;;;11.70;99.90;;;;;;5018359;28;20041;-60
2021/10/30 07:25:57;;;;;;;9.77;5.78;;;11.70;99.90;;;;;;5015087;28;20049;-60
2021/10/30 07:28:22;;;;;;;12.80;7.20;;;11.70;99.90;;;;;;5020064;28;20033;-60
2021/10/30 07:30:48;;;;;;;9.40;5.90;;;11.70;99.90;;;;;;5029359;28;20531;-60
2021/10/30 07:33:13;;;;;;;10.45;6.78;;;11.70;99.90;;;;;;5027907;28;20037;-61
2021/10/30 07:35:39;;;;;;;27.08;12.15;;;11.70;99.90;;;;;;5028721;28;20368;-60
2021/10/30 07:38:05;;;;;;;18.88;10.57;;;11.70;99.90;;;;;;5026184;28;20109;-60
2021/10/30 07:40:31;;;;;;;19.50;8.90;;;11.70;99.90;;;;;;5028397;28;20135;-60
2021/10/30 07:42:57;;;;;;;27.52;11.48;;;11.70;99.90;;;;;;5029541;28;20146;-59
2021/10/30 07:45:24;;;;;;;14.60;7.57;;;11.80;99.90;;;;;;5021181;28;20021;-60
2021/10/30 07:47:50;;;;;;;15.05;7.60;;;11.80;99.90;;;;;;5024816;28;20030;-60
2021/10/30 07:50:16;;;;;;;59.20;23.30;;;11.80;99.90;;;;;;5029895;28;20021;-60
2021/10/30 07:52:42;;;;;;;16.63;8.75;;;11.80;99.90;;;;;;5035455;28;20026;-60
2021/10/30 07:55:08;;;;;;;12.45;6.97;;;11.90;99.90;;;;;;5019778;28;20480;-60
2021/10/30 07:57:35;;;;;;;11.23;7.25;;;11.90;99.90;;;;;;5032976;28;20513;-60
2021/10/30 08:00:00;;;;;;;9.32;6.63;;;11.90;99.90;;;;;;5016899;28;20044;-60
2021/10/30 08:02:26;;;;;;;14.60;6.85;;;11.90;99.90;;;;;;5003056;28;20407;-60
2021/10/30 08:04:52;;;;;;;11.43;7.75;;;11.90;99.90;;;;;;5028722;28;20036;-61
2021/10/30 08:07:18;;;;;;;10.52;7.43;;;11.90;99.90;;;;;;5032707;28;20044;-61
2021/10/30 08:09:44;;;;;;;11.45;6.90;;;11.90;99.90;;;;;;5032589;28;20025;-61
2021/10/30 08:12:11;;;;;;;11.70;6.35;;;11.90;99.90;;;;;;5032870;28;20025;-60
2021/10/30 08:14:38;;;;;;;9.80;7.55;;;11.80;99.90;;;;;;5031900;28;20034;-60
2021/10/30 08:17:04;;;;;;;11.85;7.25;;;11.80;99.90;;;;;;5032436;28;20495;-60
2021/10/30 08:19:30;;;;;;;11.82;6.85;;;11.80;99.90;;;;;;5031882;28;20037;-61
2021/10/30 08:21:56;;;;;;;11.57;7.18;;;11.80;99.90;;;;;;5032724;28;20033;-60
2021/10/30 08:24:21;;;;;;;11.30;6.57;;;11.80;99.90;;;;;;5022339;28;20022;-60
2021/10/30 08:26:47;;;;;;;13.90;6.28;;;11.80;99.90;;;;;;5032647;28;20044;-61
2021/10/30 08:29:12;;;;;;;17.92;10.57;;;11.90;99.90;;;;;;5029669;28;20036;-60
2021/10/30 08:31:38;;;;;;;11.07;8.75;;;11.90;99.90;;;;;;5031862;28;20506;-59
2021/10/30 08:34:04;;;;;;;9.25;6.60;;;12.00;99.90;;;;;;5029300;28;20506;-60
2021/10/30 08:36:30;;;;;;;9.75;6.88;;;12.00;99.90;;;;;;5031746;28;20107;-60
2021/10/30 08:38:56;;;;;;;11.25;7.90;;;12.10;99.90;;;;;;5031089;28;20392;-60
2021/10/30 08:41:24;;;;;;;9.05;6.32;;;12.10;99.90;;;;;;5032527;28;20395;-59
2021/10/30 08:43:50;;;;;;;9.35;5.78;;;12.20;99.90;;;;;;5031362;28;20026;-60
2021/10/30 08:46:16;;;;;;;12.13;6.50;;;12.20;99.90;;;;;;5031570;28;20044;-59
2021/10/30 08:48:44;;;;;;;12.85;8.00;;;12.20;99.90;;;;;;5030283;28;20419;-60
2021/10/30 08:51:09;;;;;;;9.65;6.25;;;12.20;99.90;;;;;;5031885;28;20037;-60
2021/10/30 08:53:35;;;;;;;12.73;7.00;;;12.20;99.90;;;;;;5025777;28;20053;-60
2021/10/30 08:56:05;;;;;;;13.05;6.90;;;12.30;99.90;;;;;;5031912;28;20045;-60
2021/10/30 08:58:31;;;;;;;10.23;6.93;;;12.30;99.90;;;;;;5026015;28;20087;-59
2021/10/30 09:01:00;;;;;;;14.93;7.65;;;12.30;99.90;;;;;;4999912;28;20077;-60
2021/10/30 09:03:27;;;;;;;9.82;7.40;;;12.30;99.90;;;;;;5027048;28;20705;-61
2021/10/30 09:05:58;;;;;;;10.32;7.15;;;12.30;99.90;;;;;;5021815;28;20037;-60
2021/10/30 09:08:28;;;;;;;10.98;6.95;;;12.30;99.90;;;;;;5027879;28;20491;-60
2021/10/30 09:11:01;;;;;;;12.88;6.95;;;12.20;99.90;;;;;;5031533;28;20125;-60
2021/10/30 09:13:29;;;;;;;11.73;6.28;;;12.20;99.90;;;;;;5031178;28;20061;-60
2021/10/30 09:15:55;;;;;;;11.20;7.85;;;12.20;99.90;;;;;;5023690;28;20438;-61
2021/10/30 09:18:33;;;;;;;15.68;7.57;;;12.20;99.90;;;;;;5027559;28;20030;-60
2021/10/30 09:21:07;;;;;;;13.73;7.13;;;12.20;99.90;;;;;;5022745;28;20080;-60
2021/10/30 09:23:37;;;;;;;15.18;7.80;;;12.30;99.90;;;;;;5020150;28;20491;-61
2021/10/30 09:26:07;;;;;;;14.40;7.13;;;12.30;99.90;;;;;;5031439;28;20042;-61
2021/10/30 09:28:36;;;;;;;9.55;6.22;;;12.30;99.90;;;;;;5030801;28;20045;-61
2021/10/30 09:31:04;;;;;;;11.27;7.35;;;12.30;99.90;;;;;;5031437;28;20427;-61
2021/10/30 09:33:32;;;;;;;12.65;8.10;;;12.30;99.90;;;;;;5027430;28;20030;-60
2021/10/30 09:36:07;;;;;;;9.82;6.70;;;12.20;99.90;;;;;;5027889;28;20033;-60
2021/10/30 09:38:35;;;;;;;12.80;7.20;;;12.20;99.90;;;;;;5025959;28;20028;-60
2021/10/30 09:41:03;;;;;;;12.75;8.15;;;12.20;99.90;;;;;;5026195;28;20071;-60
2021/10/30 09:43:30;;;;;;;18.60;7.70;;;12.20;99.90;;;;;;5026259;28;20034;-60
2021/10/30 09:46:03;;;;;;;12.60;6.70;;;12.20;99.90;;;;;;5029334;28;20049;-61
2021/10/30 09:48:31;;;;;;;10.80;6.47;;;12.30;99.90;;;;;;5025163;28;20026;-60
2021/10/30 09:50:59;;;;;;;9.60;6.70;;;12.30;99.90;;;;;;5027604;28;20028;-61
2021/10/30 09:53:31;;;;;;;7.90;6.93;;;12.30;99.90;;;;;;5029815;28;20473;-60
2021/10/30 09:56:09;;;;;;;11.05;7.07;;;12.40;99.90;;;;;;5031024;28;20068;-61
2021/10/30 09:58:37;;;;;;;11.20;6.45;;;12.40;99.90;;;;;;5024846;28;20042;-61
2021/10/30 10:01:18;;;;;;;10.98;6.65;;;12.30;99.90;;;;;;5006870;28;20053;-60
2021/10/30 10:03:50;;;;;;;8.93;6.60;;;12.30;99.90;;;;;;5017002;28;20029;-58
2021/10/30 10:06:23;;;;;;;10.25;6.55;;;12.40;99.90;;;;;;5022746;28;20030;-58
2021/10/30 10:08:50;;;;;;;12.95;7.88;;;12.30;99.90;;;;;;5029987;28;20018;-60
2021/10/30 10:11:20;;;;;;;10.52;6.95;;;12.30;99.90;;;;;;5029461;28;20025;-58
2021/10/30 10:13:48;;;;;;;10.15;6.95;;;12.30;99.90;;;;;;5023102;28;20021;-60
2021/10/30 10:16:19;;;;;;;10.50;6.95;;;12.30;99.90;;;;;;5023595;28;20030;-60
2021/10/30 10:18:46;;;;;;;14.07;6.55;;;12.40;99.90;;;;;;5021235;28;20030;-59
2021/10/30 10:21:22;;;;;;;9.38;6.45;;;12.40;99.90;;;;;;5025883;28;20075;-60
2021/10/30 10:23:48;;;;;;;13.20;6.32;;;12.40;99.90;;;;;;5029867;28;20030;-61
2021/10/30 10:26:16;;;;;;;10.60;6.22;;;12.40;99.90;;;;;;5030788;28;20030;-59
2021/10/30 10:28:43;;;;;;;10.63;6.80;;;12.40;99.90;;;;;;5024270;28;20499;-59
2021/10/30 10:31:26;;;;;;;11.57;7.30;;;12.40;99.90;;;;;;5030847;28;20434;-61
2021/10/30 10:34:12;;;;;;;11.38;6.82;;;12.40;99.90;;;;;;5026713;28;20064;-60
2021/10/30 10:36:42;;;;;;;10.38;6.07;;;12.40;99.90;;;;;;5030495;28;20029;-60
2021/10/30 10:39:08;;;;;;;8.40;5.70;;;12.40;99.90;;;;;;5023579;28;20025;-61
2021/10/30 10:41:37;;;;;;;10.45;6.13;;;12.40;99.90;;;;;;5017111;28;20038;-59
2021/10/30 10:44:04;;;;;;;9.55;6.10;;;12.50;99.90;;;;;;5020995;28;20026;-59
2021/10/30 10:46:30;;;;;;;16.30;6.85;;;12.50;99.90;;;;;;5018781;28;20030;-60
2021/10/30 10:49:16;;;;;;;9.77;5.97;;;12.50;99.90;;;;;;5017729;28;20022;-59
2021/10/30 10:51:46;;;;;;;13.95;5.60;;;12.50;99.90;;;;;;5024665;28;20100;-60
2021/10/30 10:54:12;;;;;;;10.90;6.30;;;12.50;99.90;;;;;;5015066;28;20026;-59
2021/10/30 10:56:56;;;;;;;11.13;6.07;;;12.50;99.90;;;;;;5022692;28;20590;-61
2021/10/30 10:59:39;;;;;;;12.45;6.50;;;12.50;99.90;;;;;;5018197;28;20138;-59
2021/10/30 11:02:21;;;;;;;8.00;5.35;;;12.60;99.90;;;;;;4995413;28;20121;-60
2021/10/30 11:05:08;;;;;;;9.25;5.93;;;12.50;99.90;;;;;;5014285;28;20041;-60
2021/10/30 11:07:36;;;;;;;12.15;5.60;;;12.60;99.90;;;;;;5024483;28;20097;-61
2021/10/30 11:10:30;;;;;;;12.13;7.28;;;12.60;99.90;;;;;;5017398;28;20037;-60
2021/10/30 11:13:02;;;;;;;9.82;6.30;;;12.60;99.90;;;;;;5026412;28;20106;-60
2021/10/30 11:15:43;;;;;;;9.27;5.32;;;12.70;99.90;;;;;;5018211;28;20486;-61
2021/10/30 11:18:22;;;;;;;9.07;5.78;;;12.70;99.90;;;;;;5023693;28;20398;-59
2021/10/30 11:21:30;;;;;;;14.05;5.32;;;12.70;99.90;;;;;;5021416;28;20034;-61
2021/10/30 11:23:57;;;;;;;11.05;5.53;;;12.70;99.90;;;;;;5021632;28;20030;-61
2021/10/30 11:26:26;;;;;;;7.47;5.53;;;12.70;99.90;;;;;;5021454;28;20033;-60
2021/10/30 11:28:52;;;;;;;8.80;6.38;;;12.70;99.90;;;;;;5019158;28;20502;-62
2021/10/30 11:31:20;;;;;;;7.93;5.18;;;12.70;99.90;;;;;;5029297;28;20030;-61
2021/10/30 11:33:59;;;;;;;9.45;5.35;;;12.70;99.90;;;;;;5031444;28;20119;-61
2021/10/30 11:36:25;;;;;;;8.73;5.47;;;12.80;99.90;;;;;;5030138;28;20039;-59
2021/10/30 11:38:57;;;;;;;12.02;6.28;;;12.70;99.90;;;;;;5025045;28;20029;-60
2021/10/30 11:41:25;;;;;;;8.35;5.57;;;12.60;99.90;;;;;;5017339;28;20038;-60
2021/10/30 11:44:05;;;;;;;9.82;6.22;;;12.60;99.90;;;;;;5035852;28;20422;-58
2021/10/30 11:46:32;;;;;;;6.90;5.30;;;12.60;99.90;;;;;;5033363;28;20030;-60
2021/10/30 11:48:59;;;;;;;7.72;5.03;;;12.70;99.90;;;;;;5036821;28;20032;-60
2021/10/30 11:51:40;;;;;;;9.45;6.00;;;12.70;99.90;;;;;;5036546;28;20602;-58
2021/10/30 11:54:10;;;;;;;9.10;6.18;;;12.70;99.90;;;;;;5037017;28;20033;-60
2021/10/30 11:56:36;;;;;;;11.20;6.15;;;12.60;99.90;;;;;;5036758;28;20032;-60
2021/10/30 11:59:04;;;;;;;12.45;6.45;;;12.70;99.90;;;;;;5036361;28;20025;-60
2021/10/30 12:01:34;;;;;;;11.77;6.05;;;12.70;99.90;;;;;;5031808;28;20558;-60
2021/10/30 12:04:12;;;;;;;8.30;5.63;;;12.70;99.90;;;;;;5032514;28;20041;-60
2021/10/30 12:06:54;;;;;;;9.63;6.40;;;12.70;99.90;;;;;;5036975;28;20025;-59
2021/10/30 12:09:34;;;;;;;9.75;6.97;;;12.70;99.90;;;;;;5036226;28;20034;-60
2021/10/30 12:12:06;;;;;;;11.80;6.20;;;12.70;99.90;;;;;;5036275;28;20034;-59
2021/10/30 12:14:33;;;;;;;10.02;6.32;;;12.60;99.90;;;;;;5036613;28;20040;-60
2021/10/30 12:17:04;;;;;;;11.52;8.30;;;12.60;99.90;;;;;;5033723;28;20052;-59
2021/10/30 12:19:35;;;;;;;12.73;9.48;;;12.60;99.90;;;;;;5027530;28;20134;-60
2021/10/30 12:22:17;;;;;;;12.95;7.75;;;12.60;99.90;;;;;;5031627;28;20053;-60
2021/10/30 12:24:44;;;;;;;7.80;6.38;;;12.60;99.90;;;;;;5030333;28;20598;-60
2021/10/30 12:27:10;;;;;;;8.65;6.32;;;12.60;99.90;;;;;;5026821;28;20013;-60
2021/10/30 12:29:44;;;;;;;10.48;7.18;;;12.60;99.90;;;;;;5026495;28;20430;-60
2021/10/30 12:32:11;;;;;;;10.85;5.97;;;12.70;99.90;;;;;;5034167;28;20041;-60
2021/10/30 12:34:39;;;;;;;10.35;6.47;;;12.70;99.90;;;;;;5035251;28;20403;-60
2021/10/30 12:37:10;;;;;;;12.25;6.65;;;12.70;99.90;;;;;;5033068;28;20108;-59
2021/10/30 12:39:36;;;;;;;7.88;5.90;;;12.70;99.90;;;;;;5033433;28;20395;-60
2021/10/30 12:42:14;;;;;;;11.45;7.07;;;12.70;99.90;;;;;;5033107;28;20044;-60
2021/10/30 12:44:40;;;;;;;14.27;7.60;;;12.80;99.90;;;;;;5032685;28;20120;-59